Time;durP1;ratioP1;P1;durP2;ratioP2;P2;SDS_P1;SDS_P2;PMS_P1;PMS_P2;Temp;Humidity;BMP_temperature;BMP_pressure;BME280_temperature;BME280_humidity;BME280_pressure;Samples;Min_cycle;Max_cycle;Signal;HPM_P1;HPM_P2
2023/02/13 00:01:29;;;;;;;19.60;11.10;;;6.90;99.90;;;;;;4955520;28;20181;-90
2023/02/13 00:03:55;;;;;;;20.87;10.50;;;6.80;99.90;;;;;;4955903;29;20196;-89
2023/02/13 00:06:21;;;;;;;19.55;11.23;;;6.80;99.90;;;;;;4955931;28;20181;-90
2023/02/13 00:08:47;;;;;;;17.80;10.70;;;6.80;99.90;;;;;;4956068;28;20255;-89
2023/02/13 00:11:13;;;;;;;18.33;11.97;;;6.80;99.90;;;;;;4956330;28;20924;-90
2023/02/13 00:13:39;;;;;;;18.38;10.50;;;6.80;99.90;;;;;;4955898;28;20181;-90
2023/02/13 00:16:05;;;;;;;22.73;11.82;;;6.80;99.90;;;;;;4955862;28;20188;-90
2023/02/13 00:18:35;;;;;;;20.03;10.83;;;6.80;99.90;;;;;;4955463;29;20207;-89
2023/02/13 00:21:11;;;;;;;20.57;11.13;;;6.80;99.90;;;;;;4955675;29;20208;-89
2023/02/13 00:23:38;;;;;;;21.27;11.33;;;6.80;99.90;;;;;;4955828;29;20616;-90
2023/02/13 00:26:09;;;;;;;21.30;11.03;;;6.80;99.90;;;;;;4956107;29;20204;-90
2023/02/13 00:28:35;;;;;;;17.87;10.93;;;6.80;99.90;;;;;;4955774;29;20217;-90
2023/02/13 00:31:11;;;;;;;20.03;11.33;;;6.80;99.90;;;;;;4955602;29;20185;-90
2023/02/13 00:33:37;;;;;;;21.10;11.77;;;6.80;99.90;;;;;;4955830;29;20176;-90
2023/02/13 00:36:11;;;;;;;20.83;11.38;;;6.80;99.90;;;;;;4955731;29;20177;-89
2023/02/13 00:38:38;;;;;;;19.57;11.97;;;6.80;99.90;;;;;;4955763;29;20169;-90
2023/02/13 00:41:09;;;;;;;23.07;11.77;;;6.70;99.90;;;;;;4955397;29;20184;-90
2023/02/13 00:43:36;;;;;;;19.80;11.37;;;6.70;99.90;;;;;;4956734;28;20166;-90
2023/02/13 00:46:02;;;;;;;20.27;11.43;;;6.80;99.90;;;;;;4955830;29;20185;-89
2023/02/13 00:48:30;;;;;;;26.30;12.87;;;6.70;99.90;;;;;;4955493;29;20252;-90
2023/02/13 00:50:56;;;;;;;22.97;12.33;;;6.80;99.90;;;;;;4955673;29;20181;-89
2023/02/13 00:53:24;;;;;;;18.37;11.20;;;6.70;99.90;;;;;;4955321;29;20181;-90
2023/02/13 00:55:50;;;;;;;19.57;11.17;;;6.70;99.90;;;;;;4955488;28;20183;-90
2023/02/13 00:58:17;;;;;;;22.10;11.60;;;6.70;99.90;;;;;;4955266;28;20621;-89
2023/02/13 01:00:46;;;;;;;19.30;11.23;;;6.70;99.90;;;;;;4955094;28;20589;-89
2023/02/13 01:03:15;;;;;;;21.00;11.17;;;6.70;99.90;;;;;;4955277;29;20233;-89
2023/02/13 01:05:42;;;;;;;21.73;10.67;;;6.70;99.90;;;;;;4955670;29;20189;-89
2023/02/13 01:08:08;;;;;;;21.40;11.70;;;6.70;99.90;;;;;;4955783;28;20640;-90
2023/02/13 01:10:41;;;;;;;24.10;12.43;;;6.70;99.90;;;;;;4955367;28;20570;-90
2023/02/13 01:13:09;;;;;;;21.40;11.37;;;6.70;99.90;;;;;;4956284;28;20695;-89
2023/02/13 01:15:35;;;;;;;26.90;12.37;;;6.70;99.90;;;;;;4958897;29;20177;-91
2023/02/13 01:18:01;;;;;;;21.80;11.33;;;6.70;99.90;;;;;;4958873;29;20185;-90
2023/02/13 01:20:33;;;;;;;22.93;12.20;;;6.70;99.90;;;;;;4958610;29;20296;-90
2023/02/13 01:22:59;;;;;;;23.60;11.80;;;6.70;99.90;;;;;;4958486;29;20169;-90
2023/02/13 01:25:26;;;;;;;19.97;11.43;;;6.70;99.90;;;;;;4958359;28;20609;-90
2023/02/13 01:27:51;;;;;;;22.73;11.60;;;6.70;99.90;;;;;;4957988;28;20213;-90
2023/02/13 01:30:20;;;;;;;21.20;11.50;;;6.70;99.90;;;;;;4958082;29;20177;-89
2023/02/13 01:32:46;;;;;;;21.07;11.43;;;6.70;99.90;;;;;;4958417;29;20628;-90
2023/02/13 01:35:14;;;;;;;25.63;13.17;;;6.70;99.90;;;;;;4958357;28;20189;-90
2023/02/13 01:37:41;;;;;;;25.57;12.43;;;6.60;99.90;;;;;;4958473;28;20189;-90
2023/02/13 01:40:16;;;;;;;29.17;12.40;;;6.60;99.90;;;;;;4958043;28;20189;-90
2023/02/13 01:42:42;;;;;;;23.10;12.70;;;6.60;99.90;;;;;;4958183;29;20650;-91
2023/02/13 01:45:20;;;;;;;21.80;11.60;;;6.60;99.90;;;;;;4958532;29;20221;-91
2023/02/13 01:47:56;;;;;;;23.33;12.10;;;6.60;99.90;;;;;;4958408;28;20330;-91
2023/02/13 01:50:30;;;;;;;22.83;12.13;;;6.60;99.90;;;;;;4958332;29;20244;-90
2023/02/13 01:53:01;;;;;;;27.93;11.50;;;6.60;99.90;;;;;;4939074;29;20182;-90
2023/02/13 01:55:27;;;;;;;20.97;11.10;;;6.60;99.90;;;;;;4939050;29;20178;-90
2023/02/13 01:57:57;;;;;;;27.83;12.17;;;6.60;99.90;;;;;;4938978;29;20186;-90
2023/02/13 02:00:23;;;;;;;24.63;12.47;;;6.50;99.90;;;;;;4938894;29;20191;-90
2023/02/13 02:03:00;;;;;;;27.30;12.17;;;6.60;99.90;;;;;;4947941;29;20249;-90
2023/02/13 02:05:29;;;;;;;21.93;11.80;;;6.50;99.90;;;;;;4957926;29;20687;-90
2023/02/13 02:07:57;;;;;;;23.00;12.03;;;6.50;99.90;;;;;;4958092;29;20217;-90
2023/02/13 02:10:25;;;;;;;26.00;12.13;;;6.50;99.90;;;;;;4957983;29;20503;-89
2023/02/13 02:13:13;;;;;;;27.50;11.20;;;6.50;99.90;;;;;;4958770;29;20175;-90
2023/02/13 02:15:41;;;;;;;24.03;12.03;;;6.50;99.90;;;;;;4957897;29;20173;-90
2023/02/13 02:18:33;;;;;;;17.77;11.10;;;6.50;99.90;;;;;;4957892;28;20181;-90
2023/02/13 02:21:08;;;;;;;21.30;11.03;;;6.50;99.90;;;;;;4947577;29;20563;-91
2023/02/13 02:24:07;;;;;;;19.63;10.77;;;6.50;99.90;;;;;;4957793;28;20173;-91
2023/02/13 02:27:10;;;;;;;20.83;11.37;;;6.50;99.90;;;;;;4957900;29;20185;-90
2023/02/13 02:30:08;;;;;;;20.03;10.70;;;6.60;99.90;;;;;;4966852;28;20252;-91
2023/02/13 02:33:18;;;;;;;24.43;10.90;;;6.50;99.90;;;;;;4956807;29;20186;-90
2023/02/13 02:36:08;;;;;;;23.17;11.33;;;6.50;99.90;;;;;;4952533;29;20200;-90
2023/02/13 02:38:37;;;;;;;21.27;11.50;;;6.50;99.90;;;;;;4970377;28;20177;-89
2023/02/13 02:41:09;;;;;;;21.23;10.50;;;6.60;99.90;;;;;;4957048;28;20185;-90
2023/02/13 02:43:47;;;;;;;19.90;10.00;;;6.60;99.90;;;;;;4957063;29;20181;-90
2023/02/13 02:46:24;;;;;;;19.73;10.73;;;6.50;99.90;;;;;;4957489;28;20671;-90
2023/02/13 02:51:54;;;;;;;23.80;11.07;;;6.50;99.90;;;;;;4958605;29;20177;-90
2023/02/13 02:57:18;;;;;;;24.60;11.77;;;6.50;99.90;;;;;;4958495;29;20217;-91
2023/02/13 03:08:14;;;;;;;20.63;11.03;;;6.50;99.90;;;;;;4957983;29;20542;-90
2023/02/13 03:13:56;;;;;;;22.17;11.93;;;6.60;99.90;;;;;;4958348;29;20184;-90
2023/02/13 03:22:43;;;;;;;24.73;11.57;;;6.60;99.90;;;;;;4942097;29;20168;-90
2023/02/13 03:25:40;;;;;;;17.23;10.10;;;6.60;99.90;;;;;;4956863;28;20205;-90
2023/02/13 03:32:00;;;;;;;17.23;9.87;;;6.60;99.90;;;;;;4954862;29;20260;-89
2023/02/13 03:37:53;;;;;;;20.60;10.43;;;6.50;99.90;;;;;;4935656;29;20199;-88
2023/02/13 03:40:22;;;;;;;21.57;11.63;;;6.50;99.90;;;;;;4957932;29;20576;-90
2023/02/13 03:42:55;;;;;;;19.67;11.97;;;6.50;99.90;;;;;;4956017;29;20181;-90
2023/02/13 03:51:29;;;;;;;22.23;11.70;;;6.50;99.90;;;;;;4957258;29;20527;-89
2023/02/13 03:54:00;;;;;;;22.77;11.43;;;6.50;99.90;;;;;;4939233;29;21333;-89
2023/02/13 03:59:32;;;;;;;22.63;11.60;;;6.50;99.90;;;;;;4942637;29;20247;-89
2023/02/13 04:02:16;;;;;;;21.33;11.40;;;6.50;99.90;;;;;;4956961;28;20173;-89
2023/02/13 04:04:57;;;;;;;24.67;13.07;;;6.50;99.90;;;;;;4948440;29;20216;-88
2023/02/13 04:07:31;;;;;;;17.63;11.07;;;6.50;99.90;;;;;;4955890;29;20612;-88
2023/02/13 04:10:07;;;;;;;20.03;11.20;;;6.50;99.90;;;;;;4956945;28;20655;-88
2023/02/13 04:13:10;;;;;;;22.63;10.77;;;6.50;99.90;;;;;;4962760;28;20205;-89
2023/02/13 04:15:49;;;;;;;22.93;10.47;;;6.50;99.90;;;;;;4956109;29;20639;-88
2023/02/13 04:18:17;;;;;;;25.33;11.20;;;6.50;99.90;;;;;;4955925;29;20174;-88
2023/02/13 04:20:45;;;;;;;19.13;10.40;;;6.50;99.90;;;;;;4955893;29;20204;-89
2023/02/13 04:23:12;;;;;;;21.20;11.53;;;6.50;99.90;;;;;;4955855;29;20176;-88
2023/02/13 04:25:40;;;;;;;19.83;11.03;;;6.40;99.90;;;;;;4955468;29;20181;-87
2023/02/13 04:28:06;;;;;;;24.07;12.30;;;6.40;99.90;;;;;;4954703;29;20208;-88
2023/02/13 04:30:32;;;;;;;28.50;15.93;;;6.40;99.90;;;;;;4955287;29;20186;-88
2023/02/13 04:32:58;;;;;;;27.00;12.63;;;6.40;99.90;;;;;;4955985;29;20174;-88
2023/02/13 04:35:24;;;;;;;22.07;12.10;;;6.40;99.90;;;;;;4955756;29;20192;-89
2023/02/13 04:37:49;;;;;;;23.53;12.17;;;6.40;99.90;;;;;;4955642;28;20204;-90
2023/02/13 04:40:15;;;;;;;21.17;11.97;;;6.40;99.90;;;;;;4955559;28;20177;-89
2023/02/13 04:42:41;;;;;;;20.40;11.93;;;6.40;99.90;;;;;;4955571;28;20184;-89
2023/02/13 04:45:07;;;;;;;22.20;12.10;;;6.40;99.90;;;;;;4955640;28;20185;-89
2023/02/13 04:47:32;;;;;;;24.80;11.07;;;6.40;99.90;;;;;;4957086;28;20209;-89
2023/02/13 04:49:58;;;;;;;20.17;11.27;;;6.40;99.90;;;;;;4959524;28;20236;-88
2023/02/13 04:52:24;;;;;;;19.57;11.93;;;6.40;99.90;;;;;;4959363;28;20208;-89
2023/02/13 04:54:49;;;;;;;18.97;10.90;;;6.40;99.90;;;;;;4959554;28;20185;-89
2023/02/13 04:57:15;;;;;;;21.23;11.33;;;6.40;99.90;;;;;;4959143;28;20523;-89
2023/02/13 04:59:41;;;;;;;18.57;11.10;;;6.40;99.90;;;;;;4959217;28;20185;-88
2023/02/13 05:02:11;;;;;;;19.60;11.27;;;6.40;99.90;;;;;;4959097;29;20202;-89
2023/02/13 05:04:36;;;;;;;19.27;10.23;;;6.40;99.90;;;;;;4958922;29;20257;-89
2023/02/13 05:07:02;;;;;;;24.93;11.57;;;6.40;99.90;;;;;;4960077;28;20711;-88
2023/02/13 05:09:28;;;;;;;22.00;11.23;;;6.40;99.90;;;;;;4958928;29;20525;-89
2023/02/13 05:11:53;;;;;;;17.47;10.77;;;6.40;99.90;;;;;;4959774;29;20264;-89
2023/02/13 05:14:20;;;;;;;18.23;9.83;;;6.40;99.90;;;;;;4959019;28;20205;-89
2023/02/13 05:16:46;;;;;;;22.53;11.17;;;6.40;99.90;;;;;;4955598;28;20316;-88
2023/02/13 05:19:12;;;;;;;21.60;11.30;;;6.40;99.90;;;;;;4956063;29;20189;-89
2023/02/13 05:24:28;;;;;;;24.20;11.20;;;6.40;99.90;;;;;;4960356;29;20227;-89
2023/02/13 05:26:54;;;;;;;19.80;9.97;;;6.40;99.90;;;;;;4959453;28;20201;-89
2023/02/13 05:29:21;;;;;;;24.53;10.17;;;6.40;99.90;;;;;;4958669;29;20193;-89
2023/02/13 05:32:14;;;;;;;20.33;10.83;;;6.40;99.90;;;;;;4958756;29;20274;-89
2023/02/13 05:34:39;;;;;;;20.57;10.13;;;6.40;99.90;;;;;;4942475;29;20185;-89
2023/02/13 05:37:05;;;;;;;19.67;10.67;;;6.40;99.90;;;;;;4958615;29;20272;-89
2023/02/13 05:39:31;;;;;;;19.53;10.83;;;6.30;99.90;;;;;;4958458;29;20576;-90
2023/02/13 05:42:03;;;;;;;23.57;10.77;;;6.40;99.90;;;;;;4959165;29;20212;-89
2023/02/13 05:44:29;;;;;;;20.27;10.13;;;6.30;99.90;;;;;;4958210;29;20193;-90
2023/02/13 05:46:55;;;;;;;19.83;10.23;;;6.40;99.90;;;;;;4958109;29;20201;-89
2023/02/13 05:49:21;;;;;;;21.07;10.53;;;6.40;99.90;;;;;;4957664;28;20291;-88
2023/02/13 05:51:58;;;;;;;16.60;9.77;;;6.40;99.90;;;;;;4954827;29;20500;-88
2023/02/13 05:54:24;;;;;;;23.00;10.67;;;6.40;99.90;;;;;;4958222;29;20185;-89
2023/02/13 05:56:50;;;;;;;21.83;10.20;;;6.40;99.90;;;;;;4958064;28;20185;-88
2023/02/13 05:59:15;;;;;;;18.83;9.57;;;6.40;99.90;;;;;;4957115;28;20201;-88
2023/02/13 06:01:42;;;;;;;20.03;9.77;;;6.40;99.90;;;;;;4957860;29;20224;-89
2023/02/13 06:04:08;;;;;;;19.07;9.83;;;6.30;99.90;;;;;;4957942;29;20173;-88
2023/02/13 06:06:33;;;;;;;21.23;10.23;;;6.30;99.90;;;;;;4957879;29;20663;-89
2023/02/13 06:08:59;;;;;;;16.97;9.37;;;6.40;99.90;;;;;;4957803;29;20185;-89
2023/02/13 06:11:26;;;;;;;19.10;8.87;;;6.30;99.90;;;;;;4957714;29;20631;-89
2023/02/13 06:13:51;;;;;;;19.13;9.10;;;6.30;99.90;;;;;;4957448;29;20524;-89
2023/02/13 06:16:17;;;;;;;18.63;10.03;;;6.30;99.90;;;;;;4957925;28;20213;-89
2023/02/13 06:18:43;;;;;;;23.83;9.87;;;6.30;99.90;;;;;;4958026;28;20231;-89
2023/02/13 06:21:15;;;;;;;17.07;9.73;;;6.30;99.90;;;;;;4957695;28;20290;-89
2023/02/13 06:23:40;;;;;;;19.97;9.67;;;6.30;99.90;;;;;;4958904;28;20189;-88
2023/02/13 06:26:08;;;;;;;20.13;10.47;;;6.30;99.90;;;;;;4959082;29;20261;-88
2023/02/13 06:28:34;;;;;;;23.70;11.60;;;6.30;99.90;;;;;;4957630;29;20592;-89
2023/02/13 06:31:00;;;;;;;26.57;12.83;;;6.30;99.90;;;;;;4957544;29;20216;-89
2023/02/13 06:33:25;;;;;;;20.90;10.77;;;6.30;99.90;;;;;;4957640;29;20177;-89
2023/02/13 06:35:51;;;;;;;21.67;11.13;;;6.30;99.90;;;;;;4957549;29;20295;-89
2023/02/13 06:38:18;;;;;;;19.20;9.73;;;6.30;99.90;;;;;;4957360;29;20189;-89
2023/02/13 06:40:45;;;;;;;22.20;10.60;;;6.30;99.90;;;;;;4957415;29;20200;-89
2023/02/13 06:43:13;;;;;;;21.23;11.07;;;6.30;99.90;;;;;;4957985;28;20180;-89
2023/02/13 06:45:39;;;;;;;24.43;10.90;;;6.30;99.90;;;;;;4956801;29;20648;-88
2023/02/13 06:48:05;;;;;;;23.13;10.07;;;6.30;99.90;;;;;;4956408;28;20232;-89
2023/02/13 06:50:31;;;;;;;20.33;9.70;;;6.30;99.90;;;;;;4957021;29;20244;-89
2023/02/13 06:53:00;;;;;;;19.27;9.50;;;6.30;99.90;;;;;;4957375;29;20276;-89
2023/02/13 06:55:26;;;;;;;17.27;9.40;;;6.30;99.90;;;;;;4957145;28;20170;-90
2023/02/13 06:57:54;;;;;;;18.77;9.67;;;6.30;99.90;;;;;;4957109;28;20736;-90
2023/02/13 07:00:20;;;;;;;15.97;8.70;;;6.40;99.90;;;;;;4958118;28;20189;-90
2023/02/13 07:02:46;;;;;;;19.37;9.10;;;6.30;99.90;;;;;;4957312;28;20636;-90
2023/02/13 07:05:13;;;;;;;16.43;8.30;;;6.30;99.90;;;;;;4956297;28;20182;-90
2023/02/13 07:07:40;;;;;;;16.37;9.17;;;6.40;99.90;;;;;;4956113;28;20838;-90
2023/02/13 07:10:08;;;;;;;15.93;8.60;;;6.30;99.90;;;;;;4955689;28;20182;-90
2023/02/13 07:12:36;;;;;;;17.57;9.07;;;6.40;99.90;;;;;;4957366;28;20181;-88
2023/02/13 07:15:03;;;;;;;19.17;8.83;;;6.40;99.90;;;;;;4956810;29;20213;-89
2023/02/13 07:17:30;;;;;;;17.13;8.43;;;6.40;99.90;;;;;;4956507;29;20181;-90
2023/02/13 07:19:56;;;;;;;16.77;8.30;;;6.40;99.90;;;;;;4956923;29;20485;-89
2023/02/13 07:22:31;;;;;;;18.10;9.37;;;6.40;99.90;;;;;;4956846;29;20196;-88
2023/02/13 07:24:57;;;;;;;21.70;10.77;;;6.40;99.90;;;;;;4956905;29;20181;-90
2023/02/13 07:27:23;;;;;;;17.80;9.20;;;6.40;99.90;;;;;;4957647;28;20201;-89
2023/02/13 07:29:49;;;;;;;15.90;9.00;;;6.40;99.90;;;;;;4956565;29;20185;-90
2023/02/13 07:32:30;;;;;;;17.10;9.30;;;6.40;99.90;;;;;;4956431;29;20177;-89
2023/02/13 07:34:56;;;;;;;13.83;8.33;;;6.40;99.90;;;;;;4956495;29;20174;-89
2023/02/13 07:37:21;;;;;;;15.47;9.00;;;6.40;99.90;;;;;;4956634;29;20204;-89
2023/02/13 07:39:47;;;;;;;18.10;9.03;;;6.40;99.90;;;;;;4956510;29;20227;-89
2023/02/13 07:42:15;;;;;;;16.07;9.33;;;6.40;99.90;;;;;;4956184;29;20181;-89
2023/02/13 07:44:40;;;;;;;14.53;8.47;;;6.40;99.90;;;;;;4956418;29;20612;-89
2023/02/13 07:47:06;;;;;;;14.63;8.40;;;6.50;99.90;;;;;;4957453;29;20204;-89
2023/02/13 07:49:32;;;;;;;17.23;8.50;;;6.40;99.90;;;;;;4956002;29;20684;-89
2023/02/13 07:52:00;;;;;;;14.23;8.13;;;6.40;99.90;;;;;;4956278;29;20220;-89
2023/02/13 07:54:25;;;;;;;16.07;8.70;;;6.50;99.90;;;;;;4956407;29;20181;-89
2023/02/13 07:56:51;;;;;;;17.67;8.57;;;6.50;99.90;;;;;;4957465;28;20173;-89
2023/02/13 07:59:17;;;;;;;13.27;8.10;;;6.50;99.90;;;;;;4956045;29;20177;-89
2023/02/13 08:01:42;;;;;;;16.43;8.63;;;6.50;99.90;;;;;;4956177;29;20181;-90
2023/02/13 08:04:08;;;;;;;17.47;9.03;;;6.50;99.90;;;;;;4956095;29;20292;-89
2023/02/13 08:06:34;;;;;;;17.20;9.87;;;6.50;99.90;;;;;;4956198;29;20608;-89
2023/02/13 08:11:52;;;;;;;17.03;9.17;;;6.50;99.90;;;;;;4953446;29;20245;-89
2023/02/13 08:14:18;;;;;;;14.37;8.37;;;6.60;99.90;;;;;;4936877;29;20177;-89
2023/02/13 08:16:44;;;;;;;16.03;9.27;;;6.60;99.90;;;;;;4936975;29;20181;-90
2023/02/13 08:19:10;;;;;;;14.47;8.70;;;6.60;99.90;;;;;;4936681;29;20206;-89
2023/02/13 08:21:37;;;;;;;13.40;8.03;;;6.60;99.90;;;;;;4936486;29;20613;-89
2023/02/13 08:24:04;;;;;;;16.37;8.87;;;6.60;99.90;;;;;;4936122;29;20174;-89
2023/02/13 08:26:31;;;;;;;19.77;8.93;;;6.60;99.90;;;;;;4936892;29;20178;-89
2023/02/13 08:28:57;;;;;;;14.83;8.53;;;6.60;99.90;;;;;;4937540;29;20217;-89
2023/02/13 08:31:22;;;;;;;16.93;8.73;;;6.60;99.90;;;;;;4936635;29;20518;-89
2023/02/13 08:33:59;;;;;;;13.57;8.10;;;6.70;99.90;;;;;;4936554;29;20493;-89
2023/02/13 08:36:25;;;;;;;12.73;7.53;;;6.60;99.90;;;;;;4936605;29;20174;-89
2023/02/13 08:38:51;;;;;;;14.43;7.93;;;6.70;99.90;;;;;;4936486;29;20636;-90
2023/02/13 08:41:17;;;;;;;16.93;7.87;;;6.70;99.90;;;;;;4936458;29;20178;-90
2023/02/13 08:43:43;;;;;;;14.93;8.07;;;6.70;99.90;;;;;;4935889;29;20185;-89
2023/02/13 08:46:09;;;;;;;13.17;7.57;;;6.70;99.90;;;;;;4936580;29;20211;-89
2023/02/13 08:48:35;;;;;;;15.33;7.57;;;6.80;99.90;;;;;;4936321;29;20388;-89
2023/02/13 08:51:06;;;;;;;15.20;7.47;;;6.80;99.90;;;;;;4936562;29;20182;-89
2023/02/13 08:53:33;;;;;;;14.50;7.90;;;6.80;99.90;;;;;;4936371;29;20178;-89
2023/02/13 08:55:59;;;;;;;15.47;7.87;;;6.80;99.90;;;;;;4936506;29;20174;-90
2023/02/13 08:58:24;;;;;;;15.63;7.77;;;6.80;99.90;;;;;;4936356;29;20237;-89
2023/02/13 09:00:50;;;;;;;14.17;7.60;;;6.80;99.90;;;;;;4936359;29;20189;-89
2023/02/13 09:03:24;;;;;;;15.97;7.73;;;6.90;99.90;;;;;;4936401;29;20689;-89
2023/02/13 09:05:50;;;;;;;16.47;7.43;;;6.90;99.90;;;;;;4936505;29;20251;-89
2023/02/13 09:08:16;;;;;;;17.30;7.57;;;6.90;99.90;;;;;;4936430;29;20225;-89
2023/02/13 09:10:45;;;;;;;15.63;7.60;;;6.90;99.90;;;;;;4936289;29;20190;-89
2023/02/13 09:13:11;;;;;;;13.00;6.70;;;7.00;99.90;;;;;;4947451;29;20222;-89
2023/02/13 09:15:40;;;;;;;12.10;7.10;;;7.00;99.90;;;;;;4952095;29;20174;-90
2023/02/13 09:18:07;;;;;;;15.13;7.40;;;7.00;99.90;;;;;;4951934;29;20186;-90
2023/02/13 09:20:33;;;;;;;14.00;6.87;;;7.00;99.90;;;;;;4951416;29;20189;-90
2023/02/13 09:22:58;;;;;;;13.00;7.07;;;7.00;99.90;;;;;;4951551;29;20178;-90
2023/02/13 09:25:24;;;;;;;14.80;7.50;;;7.00;99.90;;;;;;4937370;29;20514;-89
2023/02/13 09:27:50;;;;;;;13.13;6.57;;;7.00;99.90;;;;;;4951838;29;20653;-89
2023/02/13 09:30:22;;;;;;;13.97;7.53;;;7.00;99.90;;;;;;4952145;29;20178;-90
2023/02/13 09:32:51;;;;;;;12.80;6.73;;;7.10;99.90;;;;;;4952127;29;20197;-90
2023/02/13 09:35:18;;;;;;;12.73;7.40;;;7.10;99.90;;;;;;4955326;28;20185;-89
2023/02/13 09:37:46;;;;;;;12.90;6.97;;;7.10;99.90;;;;;;4955885;29;20182;-89
2023/02/13 09:40:29;;;;;;;11.50;6.17;;;7.20;99.90;;;;;;4955414;29;20648;-90
2023/02/13 09:43:24;;;;;;;13.73;6.73;;;7.20;99.90;;;;;;4968633;28;20267;-89
2023/02/13 09:45:52;;;;;;;14.27;6.10;;;7.20;99.90;;;;;;4974617;28;20184;-89
2023/02/13 09:48:28;;;;;;;14.60;6.53;;;7.20;99.90;;;;;;4958144;28;20243;-89
2023/02/13 09:50:53;;;;;;;12.50;6.63;;;7.20;99.90;;;;;;4958372;29;20244;-89
2023/02/13 09:53:22;;;;;;;11.67;6.73;;;7.20;99.90;;;;;;4958398;28;20225;-88
2023/02/13 09:56:21;;;;;;;11.50;5.80;;;7.20;99.90;;;;;;4958280;29;20617;-90
2023/02/13 09:58:53;;;;;;;10.50;6.07;;;7.20;99.90;;;;;;4951814;29;20189;-88
2023/02/13 10:01:30;;;;;;;12.50;6.17;;;7.20;99.90;;;;;;4958172;29;20273;-89
2023/02/13 10:04:18;;;;;;;9.07;5.50;;;7.30;99.90;;;;;;4958232;29;20170;-89
2023/02/13 10:06:48;;;;;;;9.30;5.50;;;7.30;99.90;;;;;;4974135;28;20208;-89
2023/02/13 10:09:32;;;;;;;13.07;5.97;;;7.30;99.90;;;;;;4957827;29;20182;-89
2023/02/13 10:12:24;;;;;;;10.20;5.73;;;7.40;99.90;;;;;;4973949;28;20280;-89
2023/02/13 10:15:01;;;;;;;10.70;6.00;;;7.30;99.90;;;;;;4957629;29;20177;-89
2023/02/13 10:17:37;;;;;;;12.07;5.90;;;7.30;99.90;;;;;;4958080;28;20201;-89
2023/02/13 10:20:16;;;;;;;11.70;6.27;;;7.40;99.90;;;;;;4957747;29;20180;-89
2023/02/13 10:22:48;;;;;;;11.00;6.60;;;7.40;99.90;;;;;;4958043;29;20173;-89
2023/02/13 10:25:30;;;;;;;10.70;5.70;;;7.40;99.90;;;;;;4958061;29;20170;-89
2023/02/13 10:28:12;;;;;;;11.80;6.70;;;7.40;99.90;;;;;;4957799;29;20209;-90
2023/02/13 10:30:53;;;;;;;10.53;6.23;;;7.40;99.90;;;;;;4958815;28;20169;-89
2023/02/13 10:33:49;;;;;;;13.67;6.80;;;7.40;99.90;;;;;;4957546;29;20634;-89
2023/02/13 10:36:17;;;;;;;14.20;6.43;;;7.40;99.90;;;;;;4968815;28;20236;-88
2023/02/13 10:38:51;;;;;;;14.27;6.90;;;7.40;99.90;;;;;;4957480;29;20187;-89
2023/02/13 10:42:14;;;;;;;11.03;6.57;;;7.40;99.90;;;;;;4957360;29;20224;-89
2023/02/13 10:44:52;;;;;;;11.87;5.73;;;7.40;99.90;;;;;;4899042;29;20191;-88
2023/02/13 10:47:38;;;;;;;12.27;6.80;;;7.40;99.90;;;;;;4899131;29;20207;-90
2023/02/13 10:50:38;;;;;;;12.20;6.47;;;7.50;99.90;;;;;;4935946;29;20649;-90
2023/02/13 10:53:13;;;;;;;9.90;6.40;;;7.50;99.90;;;;;;4967584;28;20189;-90
2023/02/13 10:56:09;;;;;;;15.33;6.87;;;7.50;99.90;;;;;;4957242;29;20267;-89
2023/02/13 10:58:41;;;;;;;13.00;6.03;;;7.50;99.90;;;;;;4956926;29;20280;-88
2023/02/13 11:01:30;;;;;;;10.97;5.63;;;7.60;99.90;;;;;;4956698;29;20187;-90
2023/02/13 11:04:17;;;;;;;9.17;5.60;;;7.50;99.90;;;;;;4957242;29;20300;-90
2023/02/13 11:07:08;;;;;;;7.60;4.97;;;7.50;99.90;;;;;;4956792;29;20181;-88
2023/02/13 11:09:40;;;;;;;7.87;4.60;;;7.50;99.90;;;;;;4956599;29;20213;-89
2023/02/13 11:12:33;;;;;;;9.13;4.60;;;7.50;99.90;;;;;;4956791;29;20200;-90
2023/02/13 11:15:29;;;;;;;6.97;4.20;;;7.50;99.90;;;;;;4968752;28;20192;-88
2023/02/13 11:18:17;;;;;;;6.30;4.27;;;7.50;99.90;;;;;;4956641;29;20771;-86
2023/02/13 11:20:46;;;;;;;6.43;4.30;;;7.40;99.90;;;;;;4956615;29;20275;-87
2023/02/13 11:23:31;;;;;;;5.47;3.70;;;7.40;99.90;;;;;;4956293;29;20177;-88
2023/02/13 11:26:10;;;;;;;5.20;3.40;;;7.40;99.90;;;;;;4956795;29;20169;-89
2023/02/13 11:28:49;;;;;;;5.33;2.97;;;7.50;99.90;;;;;;4956281;29;20663;-85
2023/02/13 11:31:25;;;;;;;6.53;3.30;;;7.50;99.90;;;;;;4956544;29;20204;-90
2023/02/13 11:33:58;;;;;;;5.33;3.47;;;7.40;99.90;;;;;;4956554;29;20600;-88
2023/02/13 11:36:30;;;;;;;4.03;3.07;;;7.40;99.90;;;;;;4957680;28;20239;-89
2023/02/13 11:39:05;;;;;;;4.63;2.93;;;7.50;99.90;;;;;;4957680;28;20201;-89
2023/02/13 11:41:41;;;;;;;3.33;2.50;;;7.50;99.90;;;;;;4956454;29;20180;-87
2023/02/13 11:44:40;;;;;;;3.33;2.47;;;7.50;99.90;;;;;;4956266;29;20177;-90
2023/02/13 11:47:06;;;;;;;4.73;2.43;;;7.50;99.90;;;;;;4956311;29;20594;-89
2023/02/13 11:49:38;;;;;;;4.00;2.50;;;7.50;99.90;;;;;;4956206;28;20324;-89
2023/02/13 11:52:09;;;;;;;3.13;2.60;;;7.50;99.90;;;;;;4956186;29;20625;-89
2023/02/13 11:54:44;;;;;;;3.10;2.50;;;7.50;99.90;;;;;;4957627;28;20166;-90
2023/02/13 11:57:31;;;;;;;2.73;2.10;;;7.50;99.90;;;;;;4955348;28;20196;-89
2023/02/13 11:59:58;;;;;;;3.20;2.03;;;7.50;99.90;;;;;;4955217;29;20203;-87
2023/02/13 12:02:45;;;;;;;2.60;2.17;;;7.60;99.90;;;;;;4956782;28;20181;-88
2023/02/13 12:05:23;;;;;;;4.47;2.30;;;7.60;99.90;;;;;;4956367;28;20636;-90
2023/02/13 12:07:49;;;;;;;3.17;2.30;;;7.60;99.90;;;;;;4956212;29;20267;-88
2023/02/13 12:10:25;;;;;;;3.53;2.20;;;7.60;99.90;;;;;;4957309;28;20216;-90
2023/02/13 12:13:34;;;;;;;3.00;2.40;;;7.70;99.90;;;;;;4956238;29;20184;-91
2023/02/13 12:16:35;;;;;;;2.93;2.17;;;7.70;99.90;;;;;;4955388;29;20224;-90
2023/02/13 12:19:09;;;;;;;3.87;2.30;;;7.80;99.90;;;;;;4940249;29;20196;-88
2023/02/13 12:22:09;;;;;;;4.33;2.50;;;7.80;99.90;;;;;;4955409;29;20193;-87
2023/02/13 12:25:13;;;;;;;2.83;2.10;;;7.80;99.90;;;;;;4955857;29;20572;-89
2023/02/13 12:27:53;;;;;;;2.63;2.13;;;7.90;99.90;;;;;;4955709;29;20216;-91
2023/02/13 12:30:37;;;;;;;3.53;2.40;;;7.90;99.90;;;;;;4955805;29;20200;-87
2023/02/13 12:33:31;;;;;;;3.43;2.33;;;7.90;99.90;;;;;;4955512;29;20169;-87
2023/02/13 12:36:20;;;;;;;3.27;2.40;;;7.80;99.90;;;;;;4955528;29;20276;-89
2023/02/13 12:39:05;;;;;;;3.33;2.40;;;7.70;99.90;;;;;;4955668;29;20177;-90
2023/02/13 12:42:11;;;;;;;5.60;2.30;;;7.80;99.90;;;;;;4955821;29;20177;-90
2023/02/13 12:44:53;;;;;;;2.23;2.03;;;7.80;99.90;;;;;;4958949;28;20573;-91
2023/02/13 12:47:41;;;;;;;3.47;2.07;;;7.80;99.90;;;;;;4971962;28;20247;-89
2023/02/13 12:51:00;;;;;;;3.07;2.30;;;7.90;99.90;;;;;;4955748;29;20200;-90
2023/02/13 12:53:45;;;;;;;3.40;2.20;;;7.90;99.90;;;;;;4879171;29;20188;-90
2023/02/13 12:56:16;;;;;;;2.73;2.17;;;8.00;99.90;;;;;;4964382;28;20196;-88
2023/02/13 12:59:17;;;;;;;3.17;2.30;;;8.00;99.90;;;;;;4956029;29;20197;-90
2023/02/13 13:02:03;;;;;;;3.90;2.93;;;8.00;99.90;;;;;;4954667;29;20177;-89
2023/02/13 13:04:51;;;;;;;3.03;2.20;;;8.00;99.90;;;;;;4955504;29;20185;-89
2023/02/13 13:07:49;;;;;;;4.80;2.40;;;8.00;99.90;;;;;;4956614;29;20197;-90
2023/02/13 13:10:33;;;;;;;3.13;2.50;;;8.00;99.90;;;;;;4959608;29;20185;-87
2023/02/13 13:13:16;;;;;;;2.60;2.40;;;8.00;99.90;;;;;;4960157;29;20205;-90
2023/02/13 13:16:03;;;;;;;3.00;2.40;;;8.00;99.90;;;;;;4975338;28;20189;-87
2023/02/13 13:19:05;;;;;;;4.00;2.90;;;7.90;99.90;;;;;;4960284;28;20165;-91
2023/02/13 13:21:54;;;;;;;3.10;2.60;;;7.90;99.90;;;;;;4962455;28;20208;-91
2023/02/13 13:24:32;;;;;;;3.73;2.60;;;8.00;99.90;;;;;;4958891;29;20185;-90
2023/02/13 13:27:01;;;;;;;2.73;2.33;;;8.00;99.90;;;;;;4960042;29;20605;-91
2023/02/13 13:29:31;;;;;;;4.63;2.57;;;8.10;99.90;;;;;;4958783;29;20189;-90
2023/02/13 13:32:07;;;;;;;3.60;3.00;;;8.00;99.90;;;;;;4959177;29;20673;-89
2023/02/13 13:34:39;;;;;;;4.13;2.40;;;8.10;99.90;;;;;;4958749;29;20284;-91
2023/02/13 13:37:09;;;;;;;4.03;2.60;;;8.10;99.90;;;;;;4958793;29;20204;-88
2023/02/13 13:39:59;;;;;;;3.63;2.50;;;8.10;99.90;;;;;;4959727;29;20180;-90
2023/02/13 13:42:51;;;;;;;3.23;2.40;;;8.10;99.90;;;;;;4958798;29;20229;-90
2023/02/13 13:45:28;;;;;;;3.90;2.70;;;8.10;99.90;;;;;;4958346;29;20183;-90
2023/02/13 13:48:51;;;;;;;3.17;2.30;;;8.10;99.90;;;;;;4974417;28;20691;-90
2023/02/13 13:51:18;;;;;;;4.67;2.30;;;8.00;99.90;;;;;;4881631;29;20251;-90
2023/02/13 13:54:02;;;;;;;3.00;2.30;;;8.00;99.90;;;;;;4866602;29;20196;-91
2023/02/13 13:56:52;;;;;;;2.63;2.23;;;8.00;99.90;;;;;;4927878;28;20201;-90
2023/02/13 13:59:39;;;;;;;5.77;2.83;;;8.10;99.90;;;;;;4959113;29;20204;-90
2023/02/13 14:02:17;;;;;;;3.47;2.80;;;8.00;99.90;;;;;;4958189;29;20225;-91
2023/02/13 14:05:02;;;;;;;3.63;2.73;;;8.00;99.90;;;;;;4959146;29;20189;-91